Saint George, Virginia
Current Conditions -  °F | °C
As of 6:53 PM on Saturday 20 Dec 2014 (Local Time) from KCHO Reporting Station
Overcast Overcast  
Wind Chill: 36°   Ceiling: 7000
Heat Index: 36°   Visibility: 10mi
Dew Point: 24°   Wind: 3mph
Humidity: 62%   Direction: 90°E
Pressure: 30.26"   Gusts: NA
Location:  38.2663°N, 78.5808°W
Report Text: KCHO 202353Z 09003KT 10SM OVC070 02/M04 A3026 RMK AO2 SLP250 T00221044 10033 20022 51009
Loading
Personal Weather Stations






























Interactive Weather Map New forecast layout! Learn more

10-Day Weather Forecast

Advertisements
Track Severe Weather on mobile